Time;durP1;ratioP1;P1;durP2;ratioP2;P2;SDS_P1;SDS_P2;PMS_P1;PMS_P2;Temp;Humidity;BMP_temperature;BMP_pressure;BME280_temperature;BME280_humidity;BME280_pressure;Samples;Min_cycle;Max_cycle;Signal;HPM_P1;HPM_P2
2023/05/18 00:03:53;;;;;;;1999.90;999.90;;;9.40;99.90;;;;;;6731198;88;20270;-79
2023/05/18 00:13:54;;;;;;;1999.90;999.90;;;9.30;99.90;;;;;;6740464;88;20196;-79
2023/05/18 00:24:35;;;;;;;1999.90;999.90;;;9.20;99.90;;;;;;6730647;77;20239;-82
2023/05/18 00:34:36;;;;;;;1999.90;999.90;;;9.00;99.90;;;;;;6764277;88;21042;-81
2023/05/18 00:44:36;;;;;;;1999.90;999.90;;;8.70;99.90;;;;;;6769692;88;20252;-82
2023/05/18 00:54:37;;;;;;;1999.90;999.90;;;8.60;99.90;;;;;;6753255;88;20494;-82
2023/05/18 01:04:40;;;;;;;1999.90;999.90;;;8.50;99.90;;;;;;6752752;88;20201;-81
2023/05/18 01:14:50;;;;;;;1999.90;999.90;;;8.20;99.90;;;;;;6751683;88;20667;-81
2023/05/18 01:24:58;;;;;;;1999.90;999.90;;;8.20;99.90;;;;;;6752150;88;20184;-82
2023/05/18 01:34:59;;;;;;;1999.90;999.90;;;8.00;99.90;;;;;;6747748;88;20211;-82
2023/05/18 01:45:06;;;;;;;1999.90;999.90;;;7.80;99.90;;;;;;6748856;88;20308;-82
2023/05/18 01:55:09;;;;;;;1999.90;999.90;;;7.70;99.90;;;;;;6752834;88;20706;-82
2023/05/18 02:05:12;;;;;;;1999.90;999.90;;;7.50;99.90;;;;;;6753215;88;20211;-81
2023/05/18 02:15:13;;;;;;;1999.90;999.90;;;7.30;99.90;;;;;;6756526;88;20197;-81
2023/05/18 02:25:13;;;;;;;1999.90;999.90;;;7.30;99.90;;;;;;6759126;88;20169;-82
2023/05/18 02:35:16;;;;;;;1999.90;999.90;;;7.20;99.90;;;;;;6760066;88;20191;-80
2023/05/18 02:45:19;;;;;;;1999.90;999.90;;;7.30;99.90;;;;;;6755319;88;20212;-81
2023/05/18 02:55:20;;;;;;;1999.90;999.90;;;7.20;99.90;;;;;;6756566;88;20669;-81
2023/05/18 03:05:22;;;;;;;1999.90;999.90;;;6.90;99.90;;;;;;6754699;88;20314;-81
2023/05/18 03:15:23;;;;;;;1999.90;999.90;;;6.80;99.90;;;;;;6755160;88;20411;-81
2023/05/18 03:25:24;;;;;;;1999.90;999.90;;;6.60;99.90;;;;;;6756077;88;20192;-80
2023/05/18 03:35:25;;;;;;;1999.90;999.90;;;6.70;99.90;;;;;;6756176;88;20627;-80
2023/05/18 03:45:25;;;;;;;1999.90;999.90;;;6.70;99.90;;;;;;6751576;88;20270;-81
2023/05/18 03:55:26;;;;;;;1999.90;999.90;;;6.60;99.90;;;;;;6760271;88;20258;-81
2023/05/18 04:05:27;;;;;;;1999.90;999.90;;;6.60;99.90;;;;;;6751428;88;20212;-80
2023/05/18 04:15:27;;;;;;;1999.90;999.90;;;6.40;99.90;;;;;;6739630;88;20204;-81
2023/05/18 04:25:28;;;;;;;1999.90;999.90;;;6.50;99.90;;;;;;6758958;88;20261;-81
2023/05/18 04:35:30;;;;;;;1999.90;999.90;;;6.50;99.90;;;;;;6718541;88;20208;-82
2023/05/18 04:45:32;;;;;;;1999.90;999.90;;;6.20;99.90;;;;;;6718045;88;20284;-81
2023/05/18 04:55:34;;;;;;;1999.90;999.90;;;6.30;99.90;;;;;;6717699;88;21142;-81
2023/05/18 05:05:35;;;;;;;1999.90;999.90;;;6.50;99.90;;;;;;6745803;88;20188;-79
2023/05/18 05:15:35;;;;;;;1999.90;999.90;;;6.60;99.90;;;;;;6753838;88;20198;-80
2023/05/18 05:25:36;;;;;;;1999.90;999.90;;;6.80;99.90;;;;;;6753544;88;20726;-80
2023/05/18 05:35:36;;;;;;;1999.90;999.90;;;7.00;99.90;;;;;;6754381;88;20216;-81
2023/05/18 05:45:38;;;;;;;1999.90;999.90;;;7.10;99.90;;;;;;6758179;88;20497;-80
2023/05/18 05:55:40;;;;;;;1999.90;999.90;;;7.50;99.90;;;;;;6758147;88;20198;-79
2023/05/18 06:05:41;;;;;;;1999.90;999.90;;;8.20;99.90;;;;;;6757256;88;20213;-80
2023/05/18 06:15:41;;;;;;;1999.90;999.90;;;8.90;99.90;;;;;;6756939;88;20313;-81
2023/05/18 06:26:02;;;;;;;1999.90;999.90;;;9.40;99.90;;;;;;6757414;77;20215;-79
2023/05/18 06:36:03;;;;;;;1999.90;999.90;;;10.20;99.90;;;;;;6770930;88;20210;-79
2023/05/18 06:46:04;;;;;;;1999.90;999.90;;;10.70;99.90;;;;;;6774167;87;20206;-79
2023/05/18 06:56:05;;;;;;;1999.90;999.90;;;11.60;99.90;;;;;;6772330;87;20187;-80
2023/05/18 07:06:06;;;;;;;1999.90;999.90;;;12.10;99.90;;;;;;6769994;88;20250;-79
2023/05/18 07:16:06;;;;;;;1999.90;999.90;;;12.70;99.90;;;;;;6756408;88;20211;-81
2023/05/18 07:26:09;;;;;;;1999.90;999.90;;;13.30;99.90;;;;;;6759158;88;20299;-80
2023/05/18 07:36:10;;;;;;;1999.90;999.90;;;13.70;99.90;;;;;;6743905;88;20218;-79
2023/05/18 07:46:10;;;;;;;1999.90;999.90;;;14.20;99.90;;;;;;6748970;88;20196;-79
2023/05/18 07:56:11;;;;;;;1999.90;999.90;;;14.20;99.90;;;;;;6751175;88;20210;-81
2023/05/18 08:06:12;;;;;;;1999.90;999.90;;;15.20;99.90;;;;;;6751417;88;20203;-81
2023/05/18 08:16:12;;;;;;;1999.90;999.90;;;15.60;99.90;;;;;;6752034;88;20196;-79
2023/05/18 08:26:13;;;;;;;1999.90;999.90;;;16.30;99.60;;;;;;6740415;88;20218;-80
2023/05/18 08:36:13;;;;;;;1999.90;999.90;;;17.10;97.50;;;;;;6768881;88;20188;-80
2023/05/18 08:46:25;;;;;;;1999.90;999.90;;;17.80;97.00;;;;;;6768787;88;20291;-80
2023/05/18 08:56:25;;;;;;;1999.90;999.90;;;18.00;96.30;;;;;;6766670;88;20322;-80
2023/05/18 09:06:29;;;;;;;1999.90;999.90;;;18.70;95.60;;;;;;6763413;88;20880;-80
2023/05/18 09:16:30;;;;;;;1999.90;999.90;;;19.30;94.00;;;;;;6767671;88;20505;-80
2023/05/18 09:26:31;;;;;;;1999.90;999.90;;;20.20;92.90;;;;;;6761981;88;20722;-79
2023/05/18 09:36:33;;;;;;;1999.90;999.90;;;20.80;91.70;;;;;;6749460;88;20181;-81
2023/05/18 09:46:38;;;;;;;1999.90;999.90;;;20.40;91.70;;;;;;6750672;88;20178;-80
2023/05/18 09:56:39;;;;;;;1999.90;999.90;;;21.70;90.60;;;;;;6747323;88;20285;-80
2023/05/18 10:06:48;;;;;;;1999.90;999.90;;;21.30;90.80;;;;;;6768240;87;20232;-80
2023/05/18 10:16:51;;;;;;;1999.90;999.90;;;22.00;88.30;;;;;;6743841;88;21105;-80
2023/05/18 10:26:52;;;;;;;1999.90;999.90;;;22.70;85.60;;;;;;6751176;88;20204;-80
2023/05/18 10:36:53;;;;;;;1999.90;999.90;;;20.60;84.80;;;;;;6764652;87;20574;-80
2023/05/18 10:46:54;;;;;;;1999.90;999.90;;;22.10;85.30;;;;;;6766767;88;20609;-80
2023/05/18 10:56:55;;;;;;;1999.90;999.90;;;22.90;84.30;;;;;;6769039;88;20204;-80
2023/05/18 11:06:59;;;;;;;1999.90;999.90;;;22.70;84.60;;;;;;6760925;88;20601;-81
2023/05/18 11:17:24;;;;;;;1999.90;999.90;;;24.00;82.70;;;;;;6753757;88;20773;-81
2023/05/18 11:27:24;;;;;;;1999.90;999.90;;;24.80;79.20;;;;;;6762352;88;20193;-81
2023/05/18 11:37:37;;;;;;;1999.90;999.90;;;23.70;77.50;;;;;;6759886;88;20595;-81
2023/05/18 11:47:39;;;;;;;1999.90;999.90;;;24.40;77.90;;;;;;6755258;87;20191;-81
2023/05/18 11:57:44;;;;;;;1999.90;999.90;;;25.00;77.50;;;;;;6757814;88;20185;-80
2023/05/18 12:07:52;;;;;;;1999.90;999.90;;;25.80;75.00;;;;;;6759661;88;20176;-81
2023/05/18 12:17:53;;;;;;;1999.90;999.90;;;25.80;76.40;;;;;;6757070;87;20631;-80
2023/05/18 12:28:15;;;;;;;1999.90;999.90;;;25.40;74.40;;;;;;6762675;77;20174;-82
2023/05/18 12:38:16;;;;;;;1999.90;999.90;;;26.60;73.40;;;;;;6762958;88;20762;-79
2023/05/18 12:48:17;;;;;;;1999.90;999.90;;;25.60;73.40;;;;;;6760722;88;20200;-80
2023/05/18 12:58:19;;;;;;;1999.90;999.90;;;25.00;72.20;;;;;;6762424;88;20192;-80
2023/05/18 13:08:22;;;;;;;1999.90;999.90;;;26.50;71.20;;;;;;6758969;88;20208;-80
2023/05/18 13:18:23;;;;;;;1999.90;999.90;;;26.10;71.50;;;;;;6758929;88;20289;-80
2023/05/18 13:28:25;;;;;;;1999.90;999.90;;;26.60;71.40;;;;;;6763250;87;20188;-80
2023/05/18 13:38:26;;;;;;;1999.90;999.90;;;26.50;69.50;;;;;;6765055;88;20917;-79
2023/05/18 13:48:28;;;;;;;1999.90;999.90;;;26.00;71.10;;;;;;6758451;88;20193;-81
2023/05/18 13:58:28;;;;;;;1999.90;999.90;;;25.80;68.90;;;;;;6758334;88;20187;-80
2023/05/18 14:08:29;;;;;;;1999.90;999.90;;;26.30;70.70;;;;;;6761226;88;20711;-81
2023/05/18 14:18:30;;;;;;;1999.90;999.90;;;27.20;68.00;;;;;;6760163;88;20209;-80
2023/05/18 14:28:30;;;;;;;1999.90;999.90;;;26.00;66.70;;;;;;6761147;87;20302;-80
2023/05/18 14:38:31;;;;;;;1999.90;999.90;;;25.80;67.80;;;;;;6763914;88;20661;-80
2023/05/18 14:48:31;;;;;;;1999.90;999.90;;;26.00;67.80;;;;;;6767473;88;20216;-79
2023/05/18 14:58:32;;;;;;;1999.90;999.90;;;26.00;67.60;;;;;;6763604;88;20192;-79
2023/05/18 15:08:32;;;;;;;1999.90;999.90;;;25.80;66.30;;;;;;6763341;88;20209;-81
2023/05/18 15:18:33;;;;;;;1999.90;999.90;;;25.10;68.00;;;;;;6763488;88;20204;-80
2023/05/18 15:28:33;;;;;;;1999.90;999.90;;;25.30;67.50;;;;;;6759920;87;20305;-79
2023/05/18 15:38:34;;;;;;;1999.90;999.90;;;25.50;67.20;;;;;;6764869;88;20314;-79
2023/05/18 15:48:35;;;;;;;1999.90;999.90;;;24.30;67.30;;;;;;6763926;88;20607;-79
2023/05/18 15:58:35;;;;;;;1999.90;999.90;;;24.20;68.20;;;;;;6764083;88;20630;-79
2023/05/18 16:08:36;;;;;;;1999.90;999.90;;;23.20;68.60;;;;;;6760264;88;20205;-81
2023/05/18 16:18:36;;;;;;;1999.90;999.90;;;23.70;68.80;;;;;;6763751;88;20240;-79
2023/05/18 16:28:37;;;;;;;1999.90;999.90;;;24.50;68.00;;;;;;6762875;87;20224;-79
2023/05/18 16:38:38;;;;;;;1999.90;999.90;;;24.50;68.90;;;;;;6763311;88;20164;-79
2023/05/18 16:48:38;;;;;;;1999.90;999.90;;;23.60;70.60;;;;;;6745283;88;20170;-78
2023/05/18 16:58:39;;;;;;;1999.90;999.90;;;23.10;72.00;;;;;;6745337;88;20250;-80
2023/05/18 17:08:40;;;;;;;1999.90;999.90;;;22.70;73.50;;;;;;6752608;88;20176;-79
2023/05/18 17:18:40;;;;;;;1999.90;999.90;;;22.30;74.60;;;;;;6761807;87;20522;-79
2023/05/18 17:28:41;;;;;;;1999.90;999.90;;;21.90;76.30;;;;;;6750616;87;20295;-79
2023/05/18 17:38:41;;;;;;;1999.90;999.90;;;22.10;77.50;;;;;;6755056;87;20310;-79
2023/05/18 17:48:42;;;;;;;1999.90;999.90;;;21.00;79.60;;;;;;6759413;88;20307;-80
2023/05/18 17:58:42;;;;;;;1999.90;999.90;;;21.00;80.00;;;;;;6760255;88;20196;-79
2023/05/18 18:08:43;;;;;;;1999.90;999.90;;;20.60;80.30;;;;;;6755518;88;20193;-79
2023/05/18 18:18:44;;;;;;;1999.90;999.90;;;20.10;81.80;;;;;;6762805;87;20273;-79
2023/05/18 18:29:06;;;;;;;1999.90;999.90;;;19.30;82.50;;;;;;6774574;77;20196;-80
2023/05/18 18:39:06;;;;;;;1999.90;999.90;;;18.80;84.50;;;;;;6767027;88;20165;-79
2023/05/18 18:49:07;;;;;;;1999.90;999.90;;;18.30;85.50;;;;;;6764294;87;20191;-78
2023/05/18 18:59:07;;;;;;;1999.90;999.90;;;18.00;86.70;;;;;;6765316;88;20204;-80
2023/05/18 19:09:08;;;;;;;1999.90;999.90;;;17.50;87.50;;;;;;6764278;88;20659;-80
2023/05/18 19:19:09;;;;;;;1999.90;999.90;;;17.40;88.90;;;;;;6752047;88;20189;-81
2023/05/18 19:29:09;;;;;;;1999.90;999.90;;;17.00;89.80;;;;;;6748008;88;20317;-81
2023/05/18 19:39:10;;;;;;;1999.90;999.90;;;16.80;90.00;;;;;;6751622;88;20197;-81
2023/05/18 19:49:10;;;;;;;1999.90;999.90;;;16.40;90.30;;;;;;6751187;88;20304;-81
2023/05/18 19:59:11;;;;;;;1999.90;999.90;;;16.10;90.90;;;;;;6750610;88;20201;-81
2023/05/18 20:09:11;;;;;;;1999.90;999.90;;;15.90;91.10;;;;;;6749011;88;20189;-81
2023/05/18 20:19:16;;;;;;;1999.90;999.90;;;15.70;91.20;;;;;;6749921;88;20368;-82
2023/05/18 20:29:16;;;;;;;1999.90;999.90;;;15.60;91.00;;;;;;6751587;88;20189;-82
2023/05/18 20:39:17;;;;;;;1999.90;999.90;;;15.40;91.50;;;;;;6751858;88;20708;-81
2023/05/18 20:49:21;;;;;;;1999.90;999.90;;;15.20;92.00;;;;;;6751205;88;20209;-82
2023/05/18 20:59:21;;;;;;;1999.90;999.90;;;14.90;92.80;;;;;;6751052;88;20279;-82
2023/05/18 21:09:22;;;;;;;1999.90;999.90;;;14.60;94.00;;;;;;6749969;88;20586;-81
2023/05/18 21:19:22;;;;;;;1999.90;999.90;;;14.80;92.90;;;;;;6749076;88;20711;-81
2023/05/18 21:29:23;;;;;;;1999.90;999.90;;;14.60;92.20;;;;;;6748224;88;20205;-80
2023/05/18 21:39:23;;;;;;;1999.90;999.90;;;14.20;92.80;;;;;;6747849;88;20261;-81
2023/05/18 21:49:24;;;;;;;1999.90;999.90;;;14.00;94.00;;;;;;6748625;88;20393;-82
2023/05/18 21:59:24;;;;;;;1999.90;999.90;;;13.70;95.30;;;;;;6747519;88;20251;-81
2023/05/18 22:09:25;;;;;;;1999.90;999.90;;;13.50;97.10;;;;;;6748106;88;20216;-81
2023/05/18 22:19:25;;;;;;;1999.90;999.90;;;13.20;98.10;;;;;;6747627;88;20196;-81
2023/05/18 22:29:26;;;;;;;1999.90;999.90;;;12.90;99.90;;;;;;6750064;88;20208;-81
2023/05/18 22:39:26;;;;;;;1999.90;999.90;;;12.60;99.90;;;;;;6750600;88;20203;-80
2023/05/18 22:49:27;;;;;;;1999.90;999.90;;;12.50;99.90;;;;;;6745221;88;20192;-80
2023/05/18 22:59:27;;;;;;;1999.90;999.90;;;12.40;99.90;;;;;;6743567;88;20681;-80
2023/05/18 23:09:29;;;;;;;1999.90;999.90;;;12.20;99.90;;;;;;6743116;88;20273;-80
2023/05/18 23:19:30;;;;;;;1999.90;999.90;;;12.00;99.90;;;;;;6739344;88;20205;-80
2023/05/18 23:29:30;;;;;;;1999.90;999.90;;;11.80;99.90;;;;;;6742432;88;20284;-80
2023/05/18 23:39:32;;;;;;;1999.90;999.90;;;11.60;99.90;;;;;;6746869;88;20189;-82
2023/05/18 23:49:33;;;;;;;1999.90;999.90;;;11.40;99.90;;;;;;6746530;88;20216;-80
2023/05/18 23:59:34;;;;;;;1999.90;999.90;;;11.30;99.90;;;;;;6742368;88;20219;-80
